Terminal Aerodrome Forecast
Issued by NWS

Home | Current Version | Previous Version | Text Only | Print | Product List | Glossary On
Versions: 1 2 3 4 5 6 7 8 9 10 11 12 13 14 15 16 17 18 19 20
000
FTUS44 KLZK 050500
TAFBPK
TAF
KBPK 050533Z 0506/0606 33005KT P6SM OVC050
      TEMPO 0506/0508 3SM -SN BR OVC025
     FM050800 02005KT 5SM -SN BR OVC025
     FM051200 01005KT P6SM BKN030
     FM051800 34007KT P6SM BKN050
     FM060000 02003KT P6SM SKC=

USA.gov is the U.S. government's official web portal to all federal, state and local government web resources and services.